MDT,Max TemperatureF,Mean TemperatureF,Min TemperatureF,Max Dew PointF,MeanDew PointF,Min DewpointF,Max Humidity, Mean Humidity, Min Humidity, Max Sea Level PressureIn, Mean Sea Level PressureIn, Min Sea Level PressureIn, Max VisibilityMiles, Mean VisibilityMiles, Min VisibilityMiles, Max Wind SpeedMPH, Mean Wind SpeedMPH, Max Gust SpeedMPH,PrecipitationIn, CloudCover, Events, WindDirDegrees
2013-10-1,57,46,35,29,27,21,70,44,24,30.07,29.96,29.88,10,10,10,24,18,38,0.00,0,,209
2013-10-2,54,45,36,28,25,20,70,46,26,30.20,30.13,30.07,10,10,10,18,10,21,0.00,1,,203
2013-10-3,43,39,35,33,29,28,83,70,56,30.53,30.31,30.12,10,10,10,21,14,25,0.00,8,Rain,5
2013-10-4,48,38,28,32,27,23,89,64,36,30.63,30.54,30.41,10,10,10,13,3,,0.00,4,,174
2013-10-5,63,49,35,28,26,22,67,42,26,30.39,30.30,30.22,10,10,10,23,15,34,0.00,0,,200
2013-10-6,72,59,46,30,27,21,46,32,15,30.21,30.13,29.96,10,10,10,23,15,26,0.00,0,,201
2013-10-7,72,60,48,28,25,21,44,27,15,29.93,29.80,29.70,10,10,10,28,15,39,0.00,0,,211
2013-10-8,57,46,36,28,26,23,70,42,28,30.08,29.87,29.77,10,10,10,23,16,31,0.00,2,,222
2013-10-9,52,41,30,36,32,24,87,70,49,30.24,30.10,29.92,10,10,10,8,3,,0.00,4,,311
2013-10-10,59,46,33,32,28,18,85,55,20,29.93,29.87,29.81,10,10,10,13,6,18,0.00,2,,243
2013-10-11,50,42,34,36,32,28,87,67,44,30.17,30.07,29.91,10,10,10,10,7,,0.01,7,Rain,268
2013-10-12,51,39,27,35,29,25,92,69,41,30.26,30.21,30.16,10,10,10,10,5,18,0.00,4,Rain,21
2013-10-13,48,42,37,33,31,27,82,64,50,30.36,30.29,30.25,10,10,10,13,6,,0.00,7,,356
2013-10-14,48,41,30,34,31,26,89,69,46,30.54,30.44,30.27,10,10,10,8,5,,0.00,6,Rain,337
2013-10-15,57,42,28,28,24,22,88,56,26,30.53,30.33,30.16,10,10,7,22,9,26,0.00,0,,187
2013-10-16,45,40,34,38,31,22,93,75,46,30.34,30.19,30.07,10,9,4,16,9,22,0.26,6,Rain,255
2013-10-17,43,38,32,35,32,29,96,78,60,30.38,30.31,30.15,10,10,10,16,7,25,0.01,7,Rain,235
2013-10-18,57,42,28,30,28,25,85,59,33,30.37,30.22,30.08,10,10,10,21,12,29,0.00,1,,206
2013-10-19,62,50,37,38,29,25,73,47,24,30.13,30.03,29.96,10,10,8,22,13,28,0.01,2,Rain,246
2013-10-20,57,49,41,37,33,28,79,57,32,30.20,30.15,30.11,10,10,10,10,7,,0.00,6,,242
2013-10-21,64,52,39,36,33,31,73,52,33,30.19,30.16,30.13,10,10,10,18,10,28,0.00,3,,236
2013-10-22,68,50,33,37,32,26,85,54,21,30.22,30.18,30.13,10,10,10,16,5,,0.00,0,,201
2013-10-23,57,46,35,37,33,30,82,64,44,30.36,30.30,30.22,10,10,10,10,4,16,0.00,0,,330
2013-10-24,64,46,28,38,33,27,92,65,38,30.34,30.25,30.11,10,10,10,14,3,,0.00,0,,164
2013-10-25,63,50,37,32,29,27,76,48,26,30.34,30.25,30.11,10,10,10,13,8,,0.00,0,,207
2013-10-26,68,48,28,31,24,17,85,46,15,30.32,30.21,30.03,10,10,10,22,8,29,0.00,0,,206
2013-10-27,55,40,24,28,24,20,93,62,30,30.42,30.10,29.91,10,8,2,28,13,36,0.02,4,Snow,346
2013-10-28,24,22,19,21,18,17,93,89,85,30.53,30.33,30.16,9,3,0,17,14,25,0.02,8,Fog-Snow,1
2013-10-29,27,22,16,19,17,12,93,87,72,30.38,30.14,29.79,10,10,3,10,5,,0.00,5,Snow,156
2013-10-30,45,30,15,29,23,12,88,66,48,29.99,29.96,29.92,10,10,6,21,9,,0.00,1,,206
2013-10-31,51,44,37,30,27,25,65,54,41,30.07,29.93,29.87,10,10,10,26,16,33,0.00,2,,219